Time;durP1;ratioP1;P1;durP2;ratioP2;P2;SDS_P1;SDS_P2;PMS_P1;PMS_P2;Temp;Humidity;BMP_temperature;BMP_pressure;BME280_temperature;BME280_humidity;BME280_pressure;Samples;Min_cycle;Max_cycle;Signal;HPM_P1;HPM_P2
2023/03/13 00:02:55;;;;;;;9.55;8.55;;;;;;;;;;10425651;27;20075;-57
2023/03/13 00:07:53;;;;;;;9.45;8.43;;;;;;;;;;10424197;27;20077;-58
2023/03/13 00:12:51;;;;;;;10.38;8.63;;;;;;;;;;10425493;27;20067;-58
2023/03/13 00:17:51;;;;;;;9.50;7.82;;;;;;;;;;10418654;27;20067;-58
2023/03/13 00:22:49;;;;;;;10.88;9.68;;;;;;;;;;10414701;27;20140;-57
2023/03/13 00:27:48;;;;;;;8.73;7.82;;;;;;;;;;10417900;27;20063;-57
2023/03/13 00:32:47;;;;;;;9.93;8.40;;;;;;;;;;10418866;27;20059;-58
2023/03/13 00:37:47;;;;;;;8.93;8.02;;;;;;;;;;10422995;27;20487;-58
2023/03/13 00:42:45;;;;;;;8.98;7.38;;;;;;;;;;10417598;27;20074;-58
2023/03/13 00:47:43;;;;;;;8.70;7.20;;;;;;;;;;10415533;27;20082;-60
2023/03/13 00:52:41;;;;;;;8.85;7.95;;;;;;;;;;10416006;27;20067;-57
2023/03/13 00:57:41;;;;;;;9.10;7.95;;;;;;;;;;10423533;27;20079;-57
2023/03/13 01:02:41;;;;;;;10.02;8.57;;;;;;;;;;10422930;27;20087;-57
2023/03/13 01:07:40;;;;;;;10.20;9.07;;;;;;;;;;10411465;27;20052;-57
2023/03/13 01:12:38;;;;;;;9.65;8.73;;;;;;;;;;10417422;27;20466;-57
2023/03/13 01:17:38;;;;;;;9.68;8.63;;;;;;;;;;10414346;27;20497;-57
2023/03/13 01:22:36;;;;;;;9.27;7.95;;;;;;;;;;10416157;27;20074;-58
2023/03/13 01:27:34;;;;;;;10.00;8.40;;;;;;;;;;10415612;27;20072;-57
2023/03/13 01:32:33;;;;;;;10.32;9.25;;;;;;;;;;10414779;27;20075;-58
2023/03/13 01:37:34;;;;;;;10.68;9.55;;;;;;;;;;10414445;27;20492;-57
2023/03/13 01:42:48;;;;;;;10.13;9.10;;;;;;;;;;10412808;27;20086;-55
2023/03/13 01:47:46;;;;;;;12.13;10.40;;;;;;;;;;10412026;27;20047;-57
2023/03/13 01:52:53;;;;;;;10.55;9.13;;;;;;;;;;10412702;27;20093;-58
2023/03/13 01:57:56;;;;;;;11.80;10.60;;;;;;;;;;10419772;27;20066;-52
2023/03/13 02:02:56;;;;;;;12.27;9.52;;;;;;;;;;10415977;27;20075;-56
2023/03/13 02:07:58;;;;;;;9.70;8.70;;;;;;;;;;10419822;27;20078;-58
2023/03/13 02:12:57;;;;;;;10.80;8.93;;;;;;;;;;10412979;27;20074;-56
2023/03/13 02:17:56;;;;;;;9.63;8.48;;;;;;;;;;10414808;27;20063;-57
2023/03/13 02:22:57;;;;;;;16.55;11.63;;;;;;;;;;10421266;27;20082;-56
2023/03/13 02:27:58;;;;;;;13.75;10.07;;;;;;;;;;10410484;27;20073;-58
2023/03/13 02:32:59;;;;;;;12.45;10.88;;;;;;;;;;10412409;27;20440;-55
2023/03/13 02:38:00;;;;;;;11.75;9.82;;;;;;;;;;10412310;27;20075;-55
2023/03/13 02:43:01;;;;;;;13.23;11.68;;;;;;;;;;10411262;27;20066;-57
2023/03/13 02:48:00;;;;;;;11.90;10.50;;;;;;;;;;10415104;27;20532;-57
2023/03/13 02:53:00;;;;;;;10.70;9.60;;;;;;;;;;10415468;27;20074;-58
2023/03/13 02:58:01;;;;;;;10.23;9.10;;;;;;;;;;10411904;27;20058;-57
2023/03/13 03:03:04;;;;;;;11.83;10.63;;;;;;;;;;10417183;27;20091;-59
2023/03/13 03:08:02;;;;;;;12.30;11.00;;;;;;;;;;10419687;28;20063;-58
2023/03/13 03:13:03;;;;;;;10.90;9.77;;;;;;;;;;10412239;28;20066;-57
2023/03/13 03:18:01;;;;;;;11.38;9.68;;;;;;;;;;10409103;28;20066;-59
2023/03/13 03:23:00;;;;;;;9.43;8.45;;;;;;;;;;10411094;28;20467;-57
2023/03/13 03:27:58;;;;;;;10.00;9.00;;;;;;;;;;10413115;28;20528;-58
2023/03/13 03:32:58;;;;;;;10.20;8.52;;;;;;;;;;10418318;28;20090;-57
2023/03/13 03:37:57;;;;;;;9.75;8.80;;;;;;;;;;10411064;28;20440;-58
2023/03/13 03:42:55;;;;;;;11.43;8.65;;;;;;;;;;10417034;28;20075;-58
2023/03/13 03:47:53;;;;;;;9.48;8.30;;;;;;;;;;10417534;28;20762;-58
2023/03/13 03:52:53;;;;;;;15.00;12.30;;;;;;;;;;10418265;27;20086;-58
2023/03/13 03:57:53;;;;;;;17.65;13.55;;;;;;;;;;10418755;27;20179;-58
2023/03/13 04:03:11;;;;;;;14.18;12.68;;;;;;;;;;10417776;27;20504;-58
2023/03/13 04:08:10;;;;;;;18.00;16.20;;;;;;;;;;10418494;27;20498;-54
2023/03/13 04:13:09;;;;;;;11.43;9.85;;;;;;;;;;10419468;27;20067;-58
2023/03/13 04:18:08;;;;;;;8.20;7.43;;;;;;;;;;10416163;27;20055;-57
2023/03/13 04:23:06;;;;;;;30.98;9.95;;;;;;;;;;10424186;27;20076;-56
2023/03/13 04:28:06;;;;;;;8.93;8.00;;;;;;;;;;10418650;27;20066;-56
2023/03/13 04:33:10;;;;;;;9.38;8.38;;;;;;;;;;10418794;27;20421;-52
2023/03/13 04:38:11;;;;;;;9.27;8.20;;;;;;;;;;10428718;27;20071;-57
2023/03/13 04:43:22;;;;;;;12.50;9.63;;;;;;;;;;10430621;27;20647;-57
2023/03/13 04:48:27;;;;;;;9.27;7.72;;;;;;;;;;10412644;27;20058;-57
2023/03/13 04:53:33;;;;;;;8.40;7.25;;;;;;;;;;10417797;27;20059;-57
2023/03/13 04:59:02;;;;;;;9.00;8.10;;;;;;;;;;10411954;27;20090;-56
2023/03/13 05:04:18;;;;;;;10.52;8.48;;;;;;;;;;10426369;27;20504;-58
2023/03/13 05:09:41;;;;;;;15.88;11.52;;;;;;;;;;10412993;27;20127;-58
2023/03/13 05:15:00;;;;;;;10.18;9.07;;;;;;;;;;10415202;27;20125;-58
2023/03/13 05:20:13;;;;;;;11.55;9.45;;;;;;;;;;10422490;27;20477;-58
2023/03/13 05:25:29;;;;;;;14.38;12.85;;;;;;;;;;10423557;27;20093;-57
2023/03/13 05:30:55;;;;;;;12.98;11.63;;;;;;;;;;10413907;27;20501;-58
2023/03/13 05:36:26;;;;;;;11.43;10.18;;;;;;;;;;10398782;27;20079;-58
2023/03/13 05:41:43;;;;;;;9.88;8.88;;;;;;;;;;10418719;27;20079;-57
2023/03/13 05:46:52;;;;;;;8.60;7.70;;;;;;;;;;10417497;27;20472;-58
2023/03/13 05:52:16;;;;;;;9.77;8.77;;;;;;;;;;10414629;27;20091;-58
2023/03/13 05:57:14;;;;;;;10.00;9.00;;;;;;;;;;10416559;27;20071;-59
2023/03/13 06:02:26;;;;;;;20.65;15.80;;;;;;;;;;10415378;27;20075;-60
2023/03/13 06:07:25;;;;;;;24.52;16.85;;;;;;;;;;10415599;27;20492;-58
2023/03/13 06:12:24;;;;;;;13.52;11.27;;;;;;;;;;10413923;27;20074;-59
2023/03/13 06:17:24;;;;;;;10.70;9.35;;;;;;;;;;10416613;27;20079;-58
2023/03/13 06:22:23;;;;;;;10.40;9.25;;;;;;;;;;10415396;27;20078;-58
2023/03/13 06:27:22;;;;;;;10.57;9.40;;;;;;;;;;10414714;27;20438;-58
2023/03/13 06:32:20;;;;;;;11.75;10.55;;;;;;;;;;10412329;27;20063;-58
2023/03/13 06:37:18;;;;;;;16.42;13.82;;;;;;;;;;10414015;27;20078;-59
2023/03/13 06:42:17;;;;;;;14.43;12.35;;;;;;;;;;10411174;27;20488;-57
2023/03/13 06:47:16;;;;;;;17.52;14.00;;;;;;;;;;10411676;27;20078;-58
2023/03/13 06:52:14;;;;;;;13.15;11.73;;;;;;;;;;10414735;27;20075;-57
2023/03/13 06:57:12;;;;;;;16.40;12.90;;;;;;;;;;10413185;27;20520;-57
2023/03/13 07:02:12;;;;;;;13.23;11.23;;;;;;;;;;10412472;27;20075;-58
2023/03/13 07:07:10;;;;;;;17.17;10.02;;;;;;;;;;10412333;28;20079;-59
2023/03/13 07:12:28;;;;;;;12.65;10.05;;;;;;;;;;10414418;28;20094;-59
2023/03/13 07:17:27;;;;;;;16.05;11.20;;;;;;;;;;10413857;27;20079;-59
2023/03/13 07:22:25;;;;;;;14.35;10.82;;;;;;;;;;10410896;28;20538;-58
2023/03/13 07:27:23;;;;;;;12.05;10.68;;;;;;;;;;10422594;27;20067;-59
2023/03/13 07:32:22;;;;;;;16.60;13.30;;;;;;;;;;10416672;27;20074;-59
2023/03/13 07:37:22;;;;;;;12.27;10.90;;;;;;;;;;10420430;27;20074;-59
2023/03/13 07:42:20;;;;;;;13.20;11.10;;;;;;;;;;10420194;27;20454;-59
2023/03/13 07:47:18;;;;;;;16.55;12.98;;;;;;;;;;10421310;27;20086;-58
2023/03/13 07:52:16;;;;;;;26.80;20.52;;;;;;;;;;10417367;27;20067;-58
2023/03/13 07:57:16;;;;;;;22.55;17.83;;;;;;;;;;10420421;27;20059;-59
2023/03/13 08:02:15;;;;;;;17.42;12.55;;;;;;;;;;10420208;27;20087;-58
2023/03/13 08:07:14;;;;;;;11.05;9.95;;;;;;;;;;10420825;27;20493;-57
2023/03/13 08:12:12;;;;;;;13.45;11.88;;;;;;;;;;10419790;27;20101;-57
2023/03/13 08:17:11;;;;;;;11.90;10.15;;;;;;;;;;10421544;27;20047;-57
2023/03/13 08:22:09;;;;;;;57.80;43.67;;;;;;;;;;10418336;27;20070;-58
2023/03/13 08:27:08;;;;;;;22.08;18.05;;;;;;;;;;10418469;27;20551;-58
2023/03/13 08:32:06;;;;;;;11.60;9.35;;;;;;;;;;10418929;27;20074;-58
2023/03/13 08:37:05;;;;;;;10.05;9.05;;;;;;;;;;10414539;27;20074;-57
2023/03/13 08:42:04;;;;;;;13.32;10.63;;;;;;;;;;10417306;27;20079;-58
2023/03/13 08:47:02;;;;;;;10.75;9.43;;;;;;;;;;10417327;27;20063;-58
2023/03/13 08:52:00;;;;;;;11.77;9.90;;;;;;;;;;10418794;27;20071;-58
2023/03/13 08:57:00;;;;;;;12.15;10.68;;;;;;;;;;10414324;27;20078;-58
2023/03/13 09:01:58;;;;;;;10.63;9.55;;;;;;;;;;10416333;27;20269;-58
2023/03/13 09:06:56;;;;;;;12.90;11.32;;;;;;;;;;10418605;27;20511;-58
2023/03/13 09:11:54;;;;;;;9.18;8.27;;;;;;;;;;10417557;27;20071;-58
2023/03/13 09:16:55;;;;;;;11.23;9.73;;;;;;;;;;10417607;27;20079;-58
2023/03/13 09:21:53;;;;;;;22.08;13.55;;;;;;;;;;10416336;27;20101;-58
2023/03/13 09:26:52;;;;;;;11.68;8.18;;;;;;;;;;10417339;27;20087;-58
2023/03/13 09:32:00;;;;;;;8.90;7.35;;;;;;;;;;10417025;27;20086;-58
2023/03/13 09:36:58;;;;;;;9.75;8.68;;;;;;;;;;10417067;27;20070;-59
2023/03/13 09:42:02;;;;;;;24.88;17.23;;;;;;;;;;10416063;27;20081;-59
2023/03/13 09:47:06;;;;;;;33.70;19.35;;;;;;;;;;10414872;27;20071;-59
2023/03/13 09:52:10;;;;;;;27.08;18.25;;;;;;;;;;10413716;27;20075;-59
2023/03/13 09:57:13;;;;;;;8.45;7.68;;;;;;;;;;10415457;27;20067;-61
2023/03/13 10:02:18;;;;;;;8.40;6.90;;;;;;;;;;10412756;27;20074;-59
2023/03/13 10:07:16;;;;;;;7.37;6.57;;;;;;;;;;10414841;27;20086;-59
2023/03/13 10:12:16;;;;;;;9.85;8.02;;;;;;;;;;10414891;27;20855;-57
2023/03/13 10:17:20;;;;;;;7.13;6.13;;;;;;;;;;10416115;27;20066;-58
2023/03/13 10:22:19;;;;;;;16.92;13.77;;;;;;;;;;10415465;27;20070;-58
2023/03/13 10:27:17;;;;;;;27.77;19.65;;;;;;;;;;10410329;27;20452;-59
2023/03/13 10:32:17;;;;;;;7.72;6.75;;;;;;;;;;10414505;27;20083;-57
2023/03/13 10:37:16;;;;;;;7.50;6.25;;;;;;;;;;10413240;27;20529;-59
2023/03/13 10:42:20;;;;;;;7.93;7.13;;;;;;;;;;10414449;27;20064;-59
2023/03/13 10:47:20;;;;;;;5.93;5.32;;;;;;;;;;10414352;27;20075;-59
2023/03/13 10:52:29;;;;;;;5.40;4.90;;;;;;;;;;10413439;27;20067;-59
2023/03/13 10:57:31;;;;;;;16.88;7.85;;;;;;;;;;10412311;27;20081;-59
2023/03/13 11:02:36;;;;;;;9.73;6.32;;;;;;;;;;10413882;27;20468;-59
2023/03/13 11:07:36;;;;;;;9.25;6.18;;;;;;;;;;10414638;28;20067;-59
2023/03/13 11:12:35;;;;;;;7.43;4.68;;;;;;;;;;10414222;28;20458;-59
2023/03/13 11:17:37;;;;;;;5.78;5.10;;;;;;;;;;10413603;28;20069;-59
2023/03/13 11:22:42;;;;;;;5.40;4.38;;;;;;;;;;10411913;28;20543;-59
2023/03/13 11:27:44;;;;;;;5.32;4.32;;;;;;;;;;10408184;28;20075;-59
2023/03/13 11:32:48;;;;;;;7.63;6.28;;;;;;;;;;10410214;28;20453;-60
2023/03/13 11:37:46;;;;;;;6.40;4.25;;;;;;;;;;10409941;28;20081;-59
2023/03/13 11:43:00;;;;;;;5.97;3.83;;;;;;;;;;10408880;28;20548;-59
2023/03/13 11:48:09;;;;;;;4.35;3.60;;;;;;;;;;10411529;28;20469;-59
2023/03/13 11:53:16;;;;;;;5.72;4.65;;;;;;;;;;10414427;28;20094;-60
2023/03/13 11:58:29;;;;;;;6.82;5.40;;;;;;;;;;10408199;28;20183;-59
2023/03/13 12:03:33;;;;;;;16.83;8.13;;;;;;;;;;10404263;28;20071;-59
2023/03/13 12:08:34;;;;;;;9.77;4.72;;;;;;;;;;10408296;28;20067;-59
2023/03/13 12:13:34;;;;;;;4.93;4.20;;;;;;;;;;10418115;27;20074;-59
2023/03/13 12:18:35;;;;;;;4.93;3.80;;;;;;;;;;10418943;27;20072;-59
2023/03/13 12:23:40;;;;;;;5.95;4.38;;;;;;;;;;10418969;27;20441;-59
2023/03/13 12:28:41;;;;;;;5.38;4.13;;;;;;;;;;10420064;27;20078;-59
2023/03/13 12:33:42;;;;;;;4.63;4.22;;;;;;;;;;10418295;27;20066;-59
2023/03/13 12:38:43;;;;;;;5.70;4.03;;;;;;;;;;10413770;27;20070;-58
2023/03/13 12:43:43;;;;;;;3.85;3.45;;;;;;;;;;10413436;27;20449;-59
2023/03/13 12:49:00;;;;;;;5.75;4.90;;;;;;;;;;10418965;27;20059;-59
2023/03/13 12:54:13;;;;;;;6.72;5.22;;;;;;;;;;10417340;27;20055;-59
2023/03/13 12:59:15;;;;;;;7.88;5.97;;;;;;;;;;10418606;27;20087;-59
2023/03/13 13:04:16;;;;;;;10.25;7.63;;;;;;;;;;10418973;27;20078;-59
2023/03/13 13:09:16;;;;;;;4.97;4.57;;;;;;;;;;10418424;27;20075;-59
2023/03/13 13:14:33;;;;;;;9.88;4.85;;;;;;;;;;10418233;27;20528;-59
2023/03/13 13:19:45;;;;;;;10.57;5.32;;;;;;;;;;10416039;27;20039;-58
2023/03/13 13:24:49;;;;;;;4.40;3.80;;;;;;;;;;10413122;27;20476;-59
2023/03/13 13:29:53;;;;;;;5.03;3.80;;;;;;;;;;10415144;27;20594;-59
2023/03/13 13:35:00;;;;;;;6.87;5.37;;;;;;;;;;10415808;27;20184;-59
2023/03/13 13:40:13;;;;;;;7.60;5.55;;;;;;;;;;10417954;27;20493;-59
2023/03/13 13:45:24;;;;;;;6.75;4.57;;;;;;;;;;10410530;27;20097;-59
2023/03/13 13:50:24;;;;;;;4.22;3.80;;;;;;;;;;10413158;27;20067;-58
2023/03/13 13:55:31;;;;;;;6.07;5.07;;;;;;;;;;10413598;27;20078;-58
2023/03/13 14:00:34;;;;;;;11.18;5.72;;;;;;;;;;10415784;27;20083;-58
2023/03/13 14:05:39;;;;;;;5.57;4.68;;;;;;;;;;10415589;27;20551;-58
2023/03/13 14:10:38;;;;;;;5.20;4.60;;;;;;;;;;10415252;27;20086;-58
2023/03/13 14:15:36;;;;;;;5.85;4.53;;;;;;;;;;10415485;27;20067;-58
2023/03/13 14:20:37;;;;;;;5.90;3.78;;;;;;;;;;10415212;27;20048;-58
2023/03/13 14:25:42;;;;;;;10.02;6.72;;;;;;;;;;10409999;27;20507;-58
2023/03/13 14:30:43;;;;;;;5.97;4.45;;;;;;;;;;10412803;27;20149;-58
2023/03/13 14:35:43;;;;;;;13.93;3.90;;;;;;;;;;10409007;27;20059;-58
2023/03/13 14:40:41;;;;;;;6.45;5.68;;;;;;;;;;10410414;27;20051;-57
2023/03/13 14:45:39;;;;;;;5.88;4.10;;;;;;;;;;10414135;27;20071;-58
2023/03/13 14:50:37;;;;;;;5.20;3.65;;;;;;;;;;10414108;27;20090;-58
2023/03/13 14:55:39;;;;;;;5.35;4.82;;;;;;;;;;10412811;27;20063;-59
2023/03/13 15:00:38;;;;;;;11.43;9.07;;;;;;;;;;10411799;27;20538;-58
2023/03/13 15:05:36;;;;;;;6.97;5.93;;;;;;;;;;10412832;28;20079;-59
2023/03/13 15:10:36;;;;;;;4.70;4.25;;;;;;;;;;10413086;28;20073;-59
2023/03/13 15:15:35;;;;;;;6.53;5.55;;;;;;;;;;10411925;28;20039;-59
2023/03/13 15:20:34;;;;;;;7.03;4.50;;;;;;;;;;10412774;27;20078;-57
2023/03/13 15:25:32;;;;;;;5.70;5.10;;;;;;;;;;10412258;28;20102;-58
2023/03/13 15:30:30;;;;;;;10.05;7.18;;;;;;;;;;10411295;28;20048;-58
2023/03/13 15:35:30;;;;;;;10.80;7.05;;;;;;;;;;10413857;28;20140;-60
2023/03/13 15:40:29;;;;;;;7.85;5.15;;;;;;;;;;10411962;28;20074;-57
2023/03/13 15:45:28;;;;;;;6.20;5.03;;;;;;;;;;10414909;27;20114;-58
2023/03/13 15:50:29;;;;;;;7.70;5.60;;;;;;;;;;10421189;27;20035;-58
2023/03/13 15:55:29;;;;;;;14.10;9.80;;;;;;;;;;10420030;27;20530;-58
2023/03/13 16:00:28;;;;;;;15.18;9.13;;;;;;;;;;10420631;27;20102;-58
2023/03/13 16:05:26;;;;;;;14.88;7.72;;;;;;;;;;10419583;27;20071;-59
2023/03/13 16:10:25;;;;;;;34.38;25.45;;;;;;;;;;10419867;27;20496;-59
2023/03/13 16:15:25;;;;;;;45.08;33.50;;;;;;;;;;10420461;27;20097;-59
2023/03/13 16:20:25;;;;;;;116.20;72.28;;;;;;;;;;10418701;27;20079;-59
2023/03/13 16:25:24;;;;;;;42.78;33.35;;;;;;;;;;10420094;27;20082;-59
2023/03/13 16:30:23;;;;;;;27.60;16.15;;;;;;;;;;10417665;27;20071;-60
2023/03/13 16:35:25;;;;;;;41.70;26.98;;;;;;;;;;10418616;27;20319;-59
2023/03/13 16:40:25;;;;;;;25.50;17.55;;;;;;;;;;10417750;27;20075;-59
2023/03/13 16:45:23;;;;;;;37.42;22.98;;;;;;;;;;10417314;27;20093;-59
2023/03/13 16:50:25;;;;;;;45.47;29.67;;;;;;;;;;10416887;27;20540;-59
2023/03/13 16:55:27;;;;;;;42.13;33.17;;;;;;;;;;10418295;27;20083;-58
2023/03/13 17:00:27;;;;;;;40.90;29.95;;;;;;;;;;10417268;27;20086;-59
2023/03/13 17:05:27;;;;;;;35.83;28.40;;;;;;;;;;10417696;27;20078;-58
2023/03/13 17:10:26;;;;;;;38.65;30.65;;;;;;;;;;10418179;27;20082;-60
2023/03/13 17:15:24;;;;;;;44.72;32.70;;;;;;;;;;10415831;27;20074;-59
2023/03/13 17:20:23;;;;;;;56.67;40.88;;;;;;;;;;10417839;27;20109;-58
2023/03/13 17:25:23;;;;;;;45.50;32.40;;;;;;;;;;10415254;27;20047;-57
2023/03/13 17:30:23;;;;;;;47.15;30.92;;;;;;;;;;10417490;27;20515;-58
2023/03/13 17:35:22;;;;;;;38.30;26.00;;;;;;;;;;10417286;27;20105;-58
2023/03/13 17:40:21;;;;;;;54.05;34.25;;;;;;;;;;10411670;27;20051;-58
2023/03/13 17:45:20;;;;;;;52.33;34.03;;;;;;;;;;10415207;27;20070;-58
2023/03/13 17:50:20;;;;;;;52.95;32.80;;;;;;;;;;10415277;27;20063;-59
2023/03/13 17:55:18;;;;;;;38.75;29.08;;;;;;;;;;10414788;27;20520;-59
2023/03/13 18:00:22;;;;;;;32.40;23.58;;;;;;;;;;10415741;27;20461;-59
2023/03/13 18:05:20;;;;;;;41.95;26.55;;;;;;;;;;10414916;27;20090;-59
2023/03/13 18:10:20;;;;;;;30.15;20.73;;;;;;;;;;10414686;27;20075;-58
2023/03/13 18:15:19;;;;;;;21.83;16.83;;;;;;;;;;10413721;27;20070;-59
2023/03/13 18:20:19;;;;;;;25.52;16.30;;;;;;;;;;10415136;27;20066;-59
2023/03/13 18:25:18;;;;;;;31.02;22.58;;;;;;;;;;10410647;27;20109;-59
2023/03/13 18:30:17;;;;;;;24.05;16.80;;;;;;;;;;10413946;27;20489;-59
2023/03/13 18:35:16;;;;;;;17.10;11.73;;;;;;;;;;10419065;27;20067;-59
2023/03/13 18:40:20;;;;;;;16.50;11.40;;;;;;;;;;10418033;27;20085;-57
2023/03/13 18:45:20;;;;;;;18.60;14.77;;;;;;;;;;10413022;27;20073;-59
2023/03/13 18:50:22;;;;;;;18.92;12.90;;;;;;;;;;10415834;27;20153;-58
2023/03/13 18:55:22;;;;;;;23.17;17.45;;;;;;;;;;10413206;27;20493;-58
2023/03/13 19:00:21;;;;;;;24.83;18.02;;;;;;;;;;10414091;27;20104;-58
2023/03/13 19:05:20;;;;;;;26.95;18.27;;;;;;;;;;10414309;27;20058;-58
2023/03/13 19:10:19;;;;;;;22.05;16.23;;;;;;;;;;10406474;27;20082;-59
2023/03/13 19:15:20;;;;;;;29.23;16.25;;;;;;;;;;10413736;28;20082;-58
2023/03/13 19:20:19;;;;;;;24.73;14.30;;;;;;;;;;10410212;27;20071;-59
2023/03/13 19:25:19;;;;;;;12.90;8.13;;;;;;;;;;10418116;27;20063;-58
2023/03/13 19:30:20;;;;;;;10.40;8.05;;;;;;;;;;10420705;27;20110;-58
2023/03/13 19:35:20;;;;;;;11.30;7.95;;;;;;;;;;10422572;27;20565;-58
2023/03/13 19:40:20;;;;;;;8.70;7.10;;;;;;;;;;10417998;27;20055;-57
2023/03/13 19:45:20;;;;;;;12.27;9.05;;;;;;;;;;10417398;27;20071;-58
2023/03/13 19:50:20;;;;;;;18.02;12.65;;;;;;;;;;10418599;27;20074;-58
2023/03/13 19:55:18;;;;;;;7.63;6.45;;;;;;;;;;10412457;27;20078;-57
2023/03/13 20:00:19;;;;;;;8.98;6.85;;;;;;;;;;10419239;27;20082;-55
2023/03/13 20:05:19;;;;;;;8.10;5.97;;;;;;;;;;10407029;27;20113;-58
2023/03/13 20:10:17;;;;;;;11.05;7.57;;;;;;;;;;10411605;27;20071;-56
2023/03/13 20:15:15;;;;;;;10.32;6.20;;;;;;;;;;10416312;27;20551;-58
2023/03/13 20:20:14;;;;;;;6.05;5.45;;;;;;;;;;10417801;27;20066;-56
2023/03/13 20:25:14;;;;;;;8.18;6.75;;;;;;;;;;10408414;27;20076;-57
2023/03/13 20:30:13;;;;;;;8.60;5.53;;;;;;;;;;10409850;27;20527;-58
2023/03/13 20:35:12;;;;;;;7.13;5.50;;;;;;;;;;10414438;27;20071;-59
2023/03/13 20:40:12;;;;;;;12.52;8.70;;;;;;;;;;10410840;27;20075;-58
2023/03/13 20:45:11;;;;;;;10.98;6.35;;;;;;;;;;10416513;27;20071;-59
2023/03/13 20:50:10;;;;;;;8.05;5.30;;;;;;;;;;10414992;27;20531;-57
2023/03/13 20:55:08;;;;;;;7.03;4.63;;;;;;;;;;10411694;27;20113;-58
2023/03/13 21:00:08;;;;;;;6.90;3.60;;;;;;;;;;10417777;27;20083;-58
2023/03/13 21:05:08;;;;;;;8.50;4.35;;;;;;;;;;10417515;27;20098;-59
2023/03/13 21:10:07;;;;;;;6.32;3.35;;;;;;;;;;10416338;27;20461;-57
2023/03/13 21:15:06;;;;;;;9.77;3.72;;;;;;;;;;10414727;27;20081;-59
2023/03/13 21:20:07;;;;;;;3.90;3.30;;;;;;;;;;10416414;27;20472;-58
2023/03/13 21:25:08;;;;;;;4.63;3.40;;;;;;;;;;10414710;27;20043;-57
2023/03/13 21:30:08;;;;;;;4.35;2.78;;;;;;;;;;10414923;27;20457;-58
2023/03/13 21:35:06;;;;;;;3.60;3.17;;;;;;;;;;10415146;27;20044;-59
2023/03/13 21:40:05;;;;;;;8.52;5.18;;;;;;;;;;10414935;27;20075;-55
2023/03/13 21:45:05;;;;;;;3.58;3.22;;;;;;;;;;10416177;27;20453;-58
2023/03/13 21:50:05;;;;;;;3.80;2.95;;;;;;;;;;10415069;27;20090;-58
2023/03/13 21:55:04;;;;;;;6.00;3.50;;;;;;;;;;10414738;27;22558;-58
2023/03/13 22:00:05;;;;;;;6.82;3.20;;;;;;;;;;10413000;27;20075;-58
2023/03/13 22:05:06;;;;;;;4.03;3.45;;;;;;;;;;10415755;27;20115;-59
2023/03/13 22:10:05;;;;;;;7.25;3.05;;;;;;;;;;10412992;27;20098;-59
2023/03/13 22:15:03;;;;;;;7.55;3.05;;;;;;;;;;10415656;27;20081;-57
2023/03/13 22:20:02;;;;;;;4.53;2.67;;;;;;;;;;10415128;27;20087;-58
2023/03/13 22:25:02;;;;;;;5.75;3.83;;;;;;;;;;10414532;27;20508;-58
2023/03/13 22:30:00;;;;;;;4.47;2.95;;;;;;;;;;10415082;27;20462;-57
2023/03/13 22:34:58;;;;;;;5.80;2.90;;;;;;;;;;10414206;27;20051;-59
2023/03/13 22:39:56;;;;;;;4.63;3.20;;;;;;;;;;10414891;27;20480;-58
2023/03/13 22:44:56;;;;;;;4.68;3.28;;;;;;;;;;10414395;27;20074;-58
2023/03/13 22:49:54;;;;;;;4.32;3.47;;;;;;;;;;10414344;27;20074;-58
2023/03/13 22:54:52;;;;;;;4.10;3.67;;;;;;;;;;10412649;27;20073;-58
2023/03/13 22:59:52;;;;;;;4.57;3.50;;;;;;;;;;10408365;27;20067;-58
2023/03/13 23:04:56;;;;;;;3.67;3.35;;;;;;;;;;10413142;27;20059;-57
2023/03/13 23:09:54;;;;;;;3.78;3.05;;;;;;;;;;10413428;27;20067;-57
2023/03/13 23:14:53;;;;;;;3.88;3.55;;;;;;;;;;10412166;28;20081;-58
2023/03/13 23:19:52;;;;;;;4.13;3.35;;;;;;;;;;10413572;28;20067;-57
2023/03/13 23:24:52;;;;;;;6.05;3.50;;;;;;;;;;10411781;28;20067;-57
2023/03/13 23:29:51;;;;;;;4.05;3.08;;;;;;;;;;10411508;28;20074;-58
2023/03/13 23:34:50;;;;;;;3.15;2.80;;;;;;;;;;10412898;27;20051;-60
2023/03/13 23:39:49;;;;;;;6.25;4.47;;;;;;;;;;10413627;27;20071;-59
2023/03/13 23:44:47;;;;;;;3.20;2.90;;;;;;;;;;10412713;28;20477;-57
2023/03/13 23:49:46;;;;;;;8.48;4.45;;;;;;;;;;10413057;28;20086;-58
2023/03/13 23:54:44;;;;;;;4.53;3.25;;;;;;;;;;10412638;27;20461;-56
2023/03/13 23:59:43;;;;;;;4.13;3.47;;;;;;;;;;10410796;28;20083;-56
